Ryoei Maru — JL6703 — position and weather

sailwx.info

Track history (hours):
 
Tides and Currents Weather Stations Pressure Air Temp Water Temp Dewpoint Dewpoint Depression Visibility Wind Speed Wind Dir Waves Ship Positions

Ryoei Maru

Last reported at 2017-Feb-22 11:29 UTC. Time now 2017-Feb-22 13:06 UTC.
Position N 34°37' E 135°26'.

Length 95 m; draft 5 m.

Type: Cargo ship. MMSI: 431501749.

Date/timePositionNaut miles runAvg speedWind from/ knotsBaromVisibWave heightAir tempDewpointWater temp
2017-Feb-22 11:29N 34°37' E 135°26'0 0.0
2017-Feb-22 10:29N 34°37' E 135°26'0 0.0
2017-Feb-22 09:29N 34°37' E 135°26'0 0.0
2017-Feb-22 08:29N 34°37' E 135°26'0 0.0
2017-Feb-22 07:23N 34°37' E 135°26'0 0.0
2017-Feb-22 06:29N 34°37' E 135°26'0 0.0
2017-Feb-22 05:29N 34°37' E 135°26'0 0.0
2017-Feb-22 04:29N 34°37' E 135°26'4 4.5
2017-Feb-22 03:33N 34°36' E 135°21'1010.0
2017-Feb-22 02:33N 34°29' E 135°11'2310.9
2017-Feb-22 00:24N 34°08' E 134°59'231 8.6
2017-Feb-20 21:33N 35°01' E 139°33'1212.3
2017-Feb-20 20:33N 35°09' E 139°44'1110.9
2017-Feb-20 19:33N 35°20' E 139°42'1211.7
2017-Feb-20 18:33N 35°30' E 139°51'5 3.0
2017-Feb-20 17:03N 35°34' E 139°52'0 0.1
2017-Feb-20 16:32N 35°34' E 139°52'0 0.0
2017-Feb-20 15:20N 35°34' E 139°52'0 0.0
2017-Feb-20 14:29N 35°34' E 139°52'0 0.0
2017-Feb-20 13:29N 35°34' E 139°52'0 0.0
2017-Feb-20 12:32N 35°34' E 139°52'0 0.1
2017-Feb-20 11:33N 35°34' E 139°52'0 0.0
2017-Feb-20 10:32N 35°34' E 139°52'0 0.0
2017-Feb-20 09:25N 35°34' E 139°52'0 0.1
2017-Feb-20 08:30N 35°34' E 139°52'0 0.1
2017-Feb-20 07:33N 35°34' E 139°52'0 0.0
2017-Feb-20 06:31N 35°34' E 139°52'0 0.0
2017-Feb-20 05:32N 35°34' E 139°52'0 0.0
2017-Feb-20 04:33N 35°34' E 139°52'0 0.0
2017-Feb-20 03:33N 35°34' E 139°52'0 0.0
2017-Feb-20 02:33N 35°34' E 139°52'0 0.0
2017-Feb-20 01:32N 35°34' E 139°52'0 0.0
2017-Feb-20 00:31N 35°34' E 139°52'0 0.1
2017-Feb-19 23:33N 35°34' E 139°52'0 0.0
2017-Feb-19 22:32N 35°34' E 139°52'0 0.0
2017-Feb-19 21:31N 35°34' E 139°52'9 9.1
2017-Feb-19 20:33N 35°26' E 139°48'1110.9
2017-Feb-19 19:34N 35°15' E 139°47'1212.3
2017-Feb-19 18:33N 35°03' E 139°44'  
2017-Feb-15 15:27N 33°58' E 134°59'1112.7
2017-Feb-15 14:33N 34°10' E 134°58'1311.7
2017-Feb-15 13:26N 34°23' E 135°01'1112.3
2017-Feb-15 12:33N 34°29' E 135°11'1212.2
2017-Feb-15 11:33N 34°38' E 135°22'3 2.1
2017-Feb-15 10:05N 34°37' E 135°26'0 0.0
2017-Feb-15 09:29N 34°37' E 135°26'0 0.0
2017-Feb-14 22:03N 34°37' E 135°26'2 4.2
2017-Feb-14 21:33N 34°38' E 135°23'1212.1
2017-Feb-14 20:33N 34°29' E 135°13'1211.5
2017-Feb-14 19:32N 34°21' E 135°03'11 9.7
2017-Feb-14 18:22N 34°10' E 134°60'911.4
2017-Feb-14 17:33N 34°01' E 135°01'  
Track history (hours):
 
Tides and Currents Weather Stations Pressure Air Temp Water Temp Dewpoint Dewpoint Depression Visibility Wind Speed Wind Dir Waves Ship Positions

Ryoei Maru

Last reported at 2017-Feb-22 11:29 UTC. Time now 2017-Feb-22 13:06 UTC.
Position N 34°37' E 135°26'.

Length 95 m; draft 5 m.

Type: Cargo ship. MMSI: 431501749.

Date/timePositionNaut miles runAvg speedWind from/ knotsBaromVisibWave heightAir tempDewpointWater temp
2017-Feb-22 11:29N 34°37' E 135°26'0 0.0
2017-Feb-22 10:29N 34°37' E 135°26'0 0.0
2017-Feb-22 09:29N 34°37' E 135°26'0 0.0
2017-Feb-22 08:29N 34°37' E 135°26'0 0.0
2017-Feb-22 07:23N 34°37' E 135°26'0 0.0
2017-Feb-22 06:29N 34°37' E 135°26'0 0.0
2017-Feb-22 05:29N 34°37' E 135°26'0 0.0
2017-Feb-22 04:29N 34°37' E 135°26'4 4.5
2017-Feb-22 03:33N 34°36' E 135°21'1010.0
2017-Feb-22 02:33N 34°29' E 135°11'2310.9
2017-Feb-22 00:24N 34°08' E 134°59'231 8.6
2017-Feb-20 21:33N 35°01' E 139°33'1212.3
2017-Feb-20 20:33N 35°09' E 139°44'1110.9
2017-Feb-20 19:33N 35°20' E 139°42'1211.7
2017-Feb-20 18:33N 35°30' E 139°51'5 3.0
2017-Feb-20 17:03N 35°34' E 139°52'0 0.1
2017-Feb-20 16:32N 35°34' E 139°52'0 0.0
2017-Feb-20 15:20N 35°34' E 139°52'0 0.0
2017-Feb-20 14:29N 35°34' E 139°52'0 0.0
2017-Feb-20 13:29N 35°34' E 139°52'0 0.0
2017-Feb-20 12:32N 35°34' E 139°52'0 0.1
2017-Feb-20 11:33N 35°34' E 139°52'0 0.0
2017-Feb-20 10:32N 35°34' E 139°52'0 0.0
2017-Feb-20 09:25N 35°34' E 139°52'0 0.1
2017-Feb-20 08:30N 35°34' E 139°52'0 0.1
2017-Feb-20 07:33N 35°34' E 139°52'0 0.0
2017-Feb-20 06:31N 35°34' E 139°52'0 0.0
2017-Feb-20 05:32N 35°34' E 139°52'0 0.0
2017-Feb-20 04:33N 35°34' E 139°52'0 0.0
2017-Feb-20 03:33N 35°34' E 139°52'0 0.0
2017-Feb-20 02:33N 35°34' E 139°52'0 0.0
2017-Feb-20 01:32N 35°34' E 139°52'0 0.0
2017-Feb-20 00:31N 35°34' E 139°52'0 0.1
2017-Feb-19 23:33N 35°34' E 139°52'0 0.0
2017-Feb-19 22:32N 35°34' E 139°52'0 0.0
2017-Feb-19 21:31N 35°34' E 139°52'9 9.1
2017-Feb-19 20:33N 35°26' E 139°48'1110.9
2017-Feb-19 19:34N 35°15' E 139°47'1212.3
2017-Feb-19 18:33N 35°03' E 139°44'  
2017-Feb-15 15:27N 33°58' E 134°59'1112.7
2017-Feb-15 14:33N 34°10' E 134°58'1311.7
2017-Feb-15 13:26N 34°23' E 135°01'1112.3
2017-Feb-15 12:33N 34°29' E 135°11'1212.2
2017-Feb-15 11:33N 34°38' E 135°22'3 2.1
2017-Feb-15 10:05N 34°37' E 135°26'0 0.0
2017-Feb-15 09:29N 34°37' E 135°26'0 0.0
2017-Feb-14 22:03N 34°37' E 135°26'2 4.2
2017-Feb-14 21:33N 34°38' E 135°23'1212.1
2017-Feb-14 20:33N 34°29' E 135°13'1211.5
2017-Feb-14 19:32N 34°21' E 135°03'11 9.7
2017-Feb-14 18:22N 34°10' E 134°60'911.4
2017-Feb-14 17:33N 34°01' E 135°01'  

Dump ship's entire track history